createdAt,value
2017-08-18T00:00:45.365Z,17.8
2017-08-18T00:01:48.224Z,17.7
2017-08-18T00:02:51.398Z,17.8
2017-08-18T00:03:54.213Z,17.7
2017-08-18T00:04:57.057Z,17.7
2017-08-18T00:06:00.579Z,17.7
2017-08-18T00:07:03.074Z,17.7
2017-08-18T00:08:06.270Z,17.7
2017-08-18T00:09:08.753Z,17.7
2017-08-18T00:10:11.922Z,17.7
2017-08-18T00:11:14.798Z,17.7
2017-08-18T00:12:17.293Z,17.7
2017-08-18T00:13:19.812Z,17.7
2017-08-18T00:14:22.642Z,17.7
2017-08-18T00:15:25.155Z,17.7
2017-08-18T00:16:27.977Z,17.7
2017-08-18T00:17:30.482Z,17.7
2017-08-18T00:18:33.004Z,17.7
2017-08-18T00:19:35.842Z,17.7
2017-08-18T00:20:38.679Z,17.7
2017-08-18T00:21:41.174Z,17.7
2017-08-18T00:22:43.664Z,17.7
2017-08-18T00:23:46.173Z,17.7
2017-08-18T00:24:49.020Z,17.7
2017-08-18T00:25:51.496Z,17.6
2017-08-18T00:26:54.017Z,17.6
2017-08-18T00:27:56.542Z,17.6
2017-08-18T00:28:59.386Z,17.7
2017-08-18T00:30:02.911Z,17.6
2017-08-18T00:31:05.751Z,17.6
2017-08-18T00:32:08.583Z,17.6
2017-08-18T00:33:11.085Z,17.6
2017-08-18T00:34:13.588Z,17.6
2017-08-18T00:35:16.075Z,17.6
2017-08-18T00:36:18.583Z,17.6
2017-08-18T00:37:21.108Z,17.6
2017-08-18T00:38:23.610Z,17.6
2017-08-18T00:39:26.116Z,17.6
2017-08-18T00:40:28.614Z,17.6
2017-08-18T00:41:31.113Z,17.6
2017-08-18T00:42:33.625Z,17.6
2017-08-18T00:43:36.451Z,17.6
2017-08-18T00:44:39.309Z,17.6
2017-08-18T00:45:42.153Z,17.6
2017-08-18T00:46:45.366Z,17.6
2017-08-18T00:47:47.864Z,17.6
2017-08-18T00:48:50.699Z,17.6
2017-08-18T00:49:53.512Z,17.6
2017-08-18T00:50:56.342Z,17.6
2017-08-18T00:51:58.867Z,17.6
2017-08-18T00:53:01.696Z,17.6
2017-08-18T00:54:04.551Z,17.6
2017-08-18T00:55:07.385Z,17.6
2017-08-18T00:56:10.221Z,17.6
2017-08-18T00:57:13.072Z,17.6
2017-08-18T00:58:16.581Z,17.6
2017-08-18T00:59:19.746Z,17.6
2017-08-18T01:00:22.936Z,17.6
2017-08-18T01:01:25.444Z,17.6
2017-08-18T01:02:27.944Z,17.6
2017-08-18T01:03:30.783Z,17.6
2017-08-18T01:04:33.280Z,17.6
2017-08-18T01:05:36.110Z,17.6
2017-08-18T01:06:38.610Z,17.6
2017-08-18T01:07:41.112Z,17.6
2017-08-18T01:08:43.616Z,17.6
2017-08-18T01:09:46.445Z,17.6
2017-08-18T01:10:49.278Z,17.6
2017-08-18T01:11:51.779Z,17.6
2017-08-18T01:12:54.283Z,17.6
2017-08-18T01:13:56.782Z,17.6
2017-08-18T01:14:59.286Z,17.6
2017-08-18T01:16:01.805Z,17.6
2017-08-18T01:17:05.325Z,17.6
2017-08-18T01:18:07.820Z,17.6
2017-08-18T01:19:10.326Z,17.6
2017-08-18T01:20:12.813Z,17.6
2017-08-18T01:21:15.663Z,17.6
2017-08-18T01:22:18.177Z,17.6
2017-08-18T01:23:21.024Z,17.6
2017-08-18T01:24:23.519Z,17.6
2017-08-18T01:25:26.020Z,17.5
2017-08-18T01:26:28.522Z,17.5
2017-08-18T01:27:31.703Z,17.5
2017-08-18T01:28:34.204Z,17.5
2017-08-18T01:29:36.699Z,17.5
2017-08-18T01:30:39.536Z,17.5
2017-08-18T01:31:42.030Z,17.5
2017-08-18T01:32:44.835Z,17.5
2017-08-18T01:33:47.332Z,17.5
2017-08-18T01:34:50.181Z,17.5
2017-08-18T01:35:53.022Z,17.5
2017-08-18T01:36:55.513Z,17.5
2017-08-18T01:37:58.014Z,17.5
2017-08-18T01:39:00.512Z,17.5
2017-08-18T01:40:03.365Z,17.5
2017-08-18T01:41:06.213Z,17.5
2017-08-18T01:42:09.369Z,17.5
2017-08-18T01:43:11.860Z,17.5
2017-08-18T01:44:14.368Z,17.5
2017-08-18T01:45:17.188Z,17.5
2017-08-18T01:46:20.021Z,17.4
2017-08-18T01:47:23.552Z,17.4
2017-08-18T01:48:26.403Z,17.5
2017-08-18T01:49:29.221Z,17.4
2017-08-18T01:50:31.726Z,17.4
2017-08-18T01:51:34.555Z,17.4
2017-08-18T01:52:37.393Z,17.4
2017-08-18T01:53:39.894Z,17.4
2017-08-18T01:54:43.069Z,17.4
2017-08-18T01:55:46.574Z,17.4
2017-08-18T01:56:49.416Z,17.3
2017-08-18T01:57:52.926Z,17.3
2017-08-18T01:58:55.429Z,17.3
2017-08-18T01:59:58.301Z,17.3
2017-08-18T02:01:00.799Z,17.3
2017-08-18T02:02:03.988Z,17.3
2017-08-18T02:03:06.495Z,17.2
2017-08-18T02:04:08.991Z,17.2
2017-08-18T02:05:11.836Z,17.2
2017-08-18T02:06:15.009Z,17.2
2017-08-18T02:07:17.825Z,17.2
2017-08-18T02:08:20.359Z,17.2
2017-08-18T02:09:22.854Z,17.2
2017-08-18T02:10:25.343Z,17.2
2017-08-18T02:11:27.844Z,17.2
2017-08-18T02:12:30.678Z,17.2
2017-08-18T02:13:33.212Z,17.2
2017-08-18T02:14:35.721Z,17.1
2017-08-18T02:15:38.588Z,17.1
2017-08-18T02:16:41.095Z,17.1
2017-08-18T02:17:43.605Z,17.1
2017-08-18T02:18:46.102Z,17.1
2017-08-18T02:19:48.597Z,17.1
2017-08-18T02:20:51.452Z,17.1
2017-08-18T02:21:53.946Z,17.1
2017-08-18T02:22:56.430Z,17.1
2017-08-18T02:23:59.015Z,17
2017-08-18T02:25:01.514Z,17
2017-08-18T02:26:04.696Z,17
2017-08-18T02:27:07.195Z,17
2017-08-18T02:28:09.798Z,17
2017-08-18T02:29:12.624Z,17
2017-08-18T02:30:15.460Z,17
2017-08-18T02:31:17.965Z,17
2017-08-18T02:32:20.793Z,17
2017-08-18T02:33:24.022Z,17
2017-08-18T02:34:26.875Z,17
2017-08-18T02:35:29.713Z,17
2017-08-18T02:36:32.202Z,17
2017-08-18T02:37:35.379Z,17
2017-08-18T02:38:38.229Z,17
2017-08-18T02:39:40.761Z,17
2017-08-18T02:40:43.964Z,17
2017-08-18T02:41:46.456Z,17
2017-08-18T02:42:48.947Z,16.9
2017-08-18T02:43:52.492Z,17
2017-08-18T02:44:55.007Z,17
2017-08-18T02:45:57.857Z,17
2017-08-18T02:47:00.363Z,16.9
2017-08-18T02:48:03.559Z,16.9
2017-08-18T02:49:06.038Z,16.9
2017-08-18T02:50:09.211Z,16.9
2017-08-18T02:51:12.052Z,16.9
2017-08-18T02:52:14.888Z,16.9
2017-08-18T02:53:17.743Z,16.9
2017-08-18T02:54:20.231Z,16.9
2017-08-18T02:55:23.063Z,16.9
2017-08-18T02:56:25.578Z,16.9
2017-08-18T02:57:28.084Z,16.9
2017-08-18T02:58:30.928Z,16.9
2017-08-18T02:59:33.762Z,16.9
2017-08-18T03:00:36.251Z,16.9
2017-08-18T03:01:38.749Z,16.9
2017-08-18T03:02:41.584Z,16.9
2017-08-18T03:03:44.080Z,16.9
2017-08-18T03:04:47.253Z,16.9
2017-08-18T03:05:50.436Z,16.9
2017-08-18T03:06:52.917Z,16.9
2017-08-18T03:07:56.092Z,16.9
2017-08-18T03:08:58.584Z,16.9
2017-08-18T03:10:01.094Z,16.9
2017-08-18T03:11:04.298Z,16.9
2017-08-18T03:12:07.130Z,16.9
2017-08-18T03:13:09.664Z,16.9
2017-08-18T03:14:13.530Z,16.9
2017-08-18T03:15:16.045Z,16.9
2017-08-18T03:16:18.593Z,16.9
2017-08-18T03:17:21.458Z,16.9
2017-08-18T03:18:23.955Z,16.9
2017-08-18T03:19:26.791Z,16.9
2017-08-18T03:20:29.284Z,16.9
2017-08-18T03:21:31.791Z,16.9
2017-08-18T03:22:34.282Z,16.9
2017-08-18T03:23:36.780Z,16.9
2017-08-18T03:24:39.285Z,16.9
2017-08-18T03:25:41.775Z,16.9
2017-08-18T03:26:44.952Z,16.9
2017-08-18T03:27:47.461Z,16.9
2017-08-18T03:28:50.292Z,16.9
2017-08-18T03:29:53.138Z,16.9
2017-08-18T03:30:55.659Z,16.9
2017-08-18T03:31:58.829Z,17
2017-08-18T03:33:01.343Z,17
2017-08-18T03:34:04.191Z,17
2017-08-18T03:35:06.680Z,17
2017-08-18T03:36:09.193Z,17
2017-08-18T03:37:12.016Z,17
2017-08-18T03:38:15.546Z,17
2017-08-18T03:39:18.743Z,17
2017-08-18T03:40:21.229Z,17
2017-08-18T03:41:23.733Z,17
2017-08-18T03:42:26.229Z,17
2017-08-18T03:43:28.715Z,17
2017-08-18T03:44:31.209Z,17.1
2017-08-18T03:45:33.697Z,17.1
2017-08-18T03:46:36.183Z,17.1
2017-08-18T03:47:39.380Z,17.1
2017-08-18T03:48:42.200Z,17.1
2017-08-18T03:49:45.051Z,17.1
2017-08-18T03:50:47.555Z,17.1
2017-08-18T03:51:50.388Z,17.1
2017-08-18T03:52:52.883Z,17.1
2017-08-18T03:53:55.387Z,17.1
2017-08-18T03:54:57.886Z,17.1
2017-08-18T03:56:00.396Z,17.1
2017-08-18T03:57:03.227Z,17.2
2017-08-18T03:58:05.741Z,17.1
2017-08-18T03:59:08.576Z,17.1
2017-08-18T04:00:11.751Z,17.1
2017-08-18T04:01:14.237Z,17.1
2017-08-18T04:02:16.759Z,17.1
2017-08-18T04:03:19.600Z,17.1
2017-08-18T04:04:22.449Z,17.1
2017-08-18T04:05:24.951Z,17.1
2017-08-18T04:06:27.445Z,17.1
2017-08-18T04:07:30.281Z,17.1
2017-08-18T04:08:32.780Z,17.1
2017-08-18T04:09:35.277Z,17.1
2017-08-18T04:10:38.129Z,17.2
2017-08-18T04:11:40.956Z,17.2
2017-08-18T04:12:43.775Z,17.2
2017-08-18T04:13:46.628Z,17.2
2017-08-18T04:14:49.803Z,17.2
2017-08-18T04:15:52.641Z,17.2
2017-08-18T04:16:55.808Z,17.2
2017-08-18T04:17:58.301Z,17.2
2017-08-18T04:19:01.136Z,17.2
2017-08-18T04:20:03.973Z,17.2
2017-08-18T04:21:06.827Z,17.3
2017-08-18T04:22:09.331Z,17.3
2017-08-18T04:23:12.156Z,17.3
2017-08-18T04:24:15.007Z,17.3
2017-08-18T04:25:18.189Z,17.3
2017-08-18T04:26:20.687Z,17.3
2017-08-18T04:27:23.184Z,17.3
2017-08-18T04:28:25.687Z,17.3
2017-08-18T04:29:28.200Z,17.3
2017-08-18T04:30:30.712Z,17.3
2017-08-18T04:31:33.215Z,17.3
2017-08-18T04:32:35.714Z,17.3
2017-08-18T04:33:38.894Z,17.3
2017-08-18T04:34:42.052Z,17.3
2017-08-18T04:35:45.234Z,17.4
2017-08-18T04:36:47.725Z,17.4
2017-08-18T04:37:50.223Z,17.4
2017-08-18T04:38:52.716Z,17.4
2017-08-18T04:39:55.211Z,17.4
2017-08-18T04:40:57.714Z,17.4
2017-08-18T04:42:00.205Z,17.4
2017-08-18T04:43:03.037Z,17.4
2017-08-18T04:44:05.537Z,17.4
2017-08-18T04:45:08.038Z,17.4
2017-08-18T04:46:10.862Z,17.4
2017-08-18T04:47:13.362Z,17.4
2017-08-18T04:48:16.193Z,17.4
2017-08-18T04:49:18.696Z,17.4
2017-08-18T04:50:21.543Z,17.4
2017-08-18T04:51:24.390Z,17.4
2017-08-18T04:52:27.214Z,17.4
2017-08-18T04:53:29.718Z,17.4
2017-08-18T04:54:32.212Z,17.4
2017-08-18T04:55:34.712Z,17.4
2017-08-18T04:56:37.535Z,17.4
2017-08-18T04:57:40.041Z,17.4
2017-08-18T04:58:42.541Z,17.4
2017-08-18T04:59:45.041Z,17.4
2017-08-18T05:00:47.520Z,17.5
2017-08-18T05:01:50.388Z,17.4
2017-08-18T05:02:52.891Z,17.5
2017-08-18T05:03:55.730Z,17.5
2017-08-18T05:04:58.570Z,17.5
2017-08-18T05:06:01.788Z,17.5
2017-08-18T05:07:04.285Z,17.5
2017-08-18T05:08:06.794Z,17.5
2017-08-18T05:09:10.319Z,17.5
2017-08-18T05:10:13.160Z,17.5
2017-08-18T05:11:15.654Z,17.5
2017-08-18T05:12:18.889Z,17.5
2017-08-18T05:13:41.243Z,17.5
2017-08-18T05:14:43.700Z,17.5
2017-08-18T05:15:46.144Z,17.5
2017-08-18T05:16:49.643Z,17.6
2017-08-18T05:17:53.154Z,17.6
2017-08-18T05:18:55.620Z,17.6
2017-08-18T05:19:58.054Z,17.6
2017-08-18T05:21:00.856Z,17.6
2017-08-18T05:22:03.996Z,17.6
2017-08-18T05:23:06.785Z,17.6
2017-08-18T05:24:09.261Z,17.6
2017-08-18T05:25:11.706Z,17.6
2017-08-18T05:26:14.844Z,17.6
2017-08-18T05:27:17.995Z,17.7
2017-08-18T05:28:20.436Z,17.7
2017-08-18T05:29:23.279Z,17.7
2017-08-18T05:30:25.739Z,17.7
2017-08-18T05:31:28.189Z,17.7
2017-08-18T05:32:30.978Z,17.7
2017-08-18T05:33:33.438Z,17.7
2017-08-18T05:34:35.896Z,17.7
2017-08-18T05:35:38.352Z,17.7
2017-08-18T05:36:41.136Z,17.8
2017-08-18T05:37:44.284Z,17.8
2017-08-18T05:38:47.091Z,17.8
2017-08-18T05:39:49.893Z,17.8
2017-08-18T05:40:52.350Z,17.9
2017-08-18T05:41:54.818Z,17.9
2017-08-18T05:42:57.990Z,17.9
2017-08-18T05:44:00.464Z,17.9
2017-08-18T05:45:03.264Z,18
2017-08-18T05:46:06.065Z,18
2017-08-18T05:47:09.538Z,18
2017-08-18T05:48:12.356Z,18
2017-08-18T05:49:15.158Z,18
2017-08-18T05:50:17.946Z,18
2017-08-18T05:51:22.133Z,18
2017-08-18T05:52:24.599Z,18
2017-08-18T05:53:27.051Z,18.1
2017-08-18T05:54:29.838Z,18.1
2017-08-18T05:55:32.290Z,18.1
2017-08-18T05:56:35.084Z,18.1
2017-08-18T05:57:37.879Z,18.1
2017-08-18T05:58:40.685Z,18.1
2017-08-18T05:59:43.483Z,18.2
2017-08-18T06:00:45.951Z,18.2
2017-08-18T06:01:48.426Z,18.2
2017-08-18T06:02:50.857Z,18.2
2017-08-18T06:03:53.664Z,18.3
2017-08-18T06:04:56.476Z,18.3
2017-08-18T06:05:58.940Z,18.3
2017-08-18T06:07:01.739Z,18.3
2017-08-18T06:08:05.204Z,18.3
2017-08-18T06:09:07.682Z,18.3
2017-08-18T06:10:10.487Z,18.3
2017-08-18T06:11:12.966Z,18.3
2017-08-18T06:12:16.092Z,18.3
2017-08-18T06:13:18.571Z,18.4
2017-08-18T06:14:21.365Z,18.4
2017-08-18T06:15:23.811Z,18.4
2017-08-18T06:16:26.609Z,18.4
2017-08-18T06:17:29.431Z,18.4
2017-08-18T06:18:32.229Z,18.4
2017-08-18T06:19:34.689Z,18.5
2017-08-18T06:20:37.492Z,18.5
2017-08-18T06:21:39.962Z,18.5
2017-08-18T06:22:43.096Z,18.5
2017-08-18T06:23:45.564Z,18.5
2017-08-18T06:24:48.005Z,18.5
2017-08-18T06:25:50.796Z,18.5
2017-08-18T06:26:53.616Z,18.6
2017-08-18T06:27:56.069Z,18.6
2017-08-18T06:28:58.876Z,18.6
2017-08-18T06:30:01.676Z,18.6
2017-08-18T06:31:05.165Z,18.6
2017-08-18T06:32:08.638Z,18.6
2017-08-18T06:33:12.118Z,18.6
2017-08-18T06:34:14.898Z,18.6
2017-08-18T06:35:17.706Z,18.6
2017-08-18T06:36:21.193Z,18.6
2017-08-18T06:37:23.661Z,18.6
2017-08-18T06:38:26.138Z,18.6
2017-08-18T06:39:28.934Z,18.6
2017-08-18T06:40:32.404Z,18.6
2017-08-18T06:41:35.204Z,18.6
2017-08-18T06:42:38.010Z,18.6
2017-08-18T06:43:40.495Z,18.6
2017-08-18T06:44:43.636Z,18.7
2017-08-18T06:45:46.420Z,18.7
2017-08-18T06:46:48.875Z,18.7
2017-08-18T06:47:52.020Z,18.7
2017-08-18T06:48:54.479Z,18.8
2017-08-18T06:49:56.933Z,18.8
2017-08-18T06:50:59.390Z,18.8
2017-08-18T06:52:01.850Z,18.8
2017-08-18T06:53:04.664Z,18.8
2017-08-18T06:54:07.116Z,18.8
2017-08-18T06:55:09.908Z,18.9
2017-08-18T06:56:12.374Z,18.9
2017-08-18T06:57:14.816Z,18.9
2017-08-18T06:58:18.298Z,18.9
2017-08-18T06:59:20.783Z,19
2017-08-18T07:00:23.230Z,18.9
2017-08-18T07:01:25.691Z,19
2017-08-18T07:02:28.891Z,19
2017-08-18T07:03:31.348Z,19.1
2017-08-18T07:04:34.141Z,19.1
2017-08-18T07:05:36.925Z,19.1
2017-08-18T07:06:40.063Z,19.2
2017-08-18T07:07:42.903Z,19.2
2017-08-18T07:08:45.698Z,19.2
2017-08-18T07:09:48.156Z,19.2
2017-08-18T07:10:50.961Z,19.2
2017-08-18T07:11:53.415Z,19.2
2017-08-18T07:12:55.878Z,19.2
2017-08-18T07:13:58.686Z,19.2
2017-08-18T07:15:01.492Z,19.2
2017-08-18T07:16:03.950Z,19.2
2017-08-18T07:17:06.410Z,19.2
2017-08-18T07:18:09.203Z,19.2
2017-08-18T07:19:11.679Z,19.2
2017-08-18T07:20:14.809Z,19.3
2017-08-18T07:21:17.607Z,19.3
2017-08-18T07:22:20.772Z,19.4
2017-08-18T07:23:23.248Z,19.3
2017-08-18T07:24:25.739Z,19.3
2017-08-18T07:25:28.541Z,19.3
2017-08-18T07:26:30.991Z,19.3
2017-08-18T07:27:33.469Z,19.3
2017-08-18T07:28:35.942Z,19.4
2017-08-18T07:29:39.096Z,19.4
2017-08-18T07:30:41.556Z,19.3
2017-08-18T07:31:44.023Z,19.3
2017-08-18T07:32:46.823Z,19.4
2017-08-18T07:33:49.640Z,19.3
2017-08-18T07:34:52.771Z,19.3
2017-08-18T07:35:55.226Z,19.3
2017-08-18T07:36:57.722Z,19.3
2017-08-18T07:38:00.514Z,19.3
2017-08-18T07:39:03.674Z,19.4
2017-08-18T07:40:06.810Z,19.4
2017-08-18T07:41:09.254Z,19.3
2017-08-18T07:42:11.710Z,19.4
2017-08-18T07:43:14.533Z,19.4
2017-08-18T07:44:17.008Z,19.4
2017-08-18T07:45:19.798Z,19.4
2017-08-18T07:46:22.250Z,19.4
2017-08-18T07:47:25.053Z,19.5
2017-08-18T07:48:28.207Z,19.5
2017-08-18T07:49:31.014Z,19.6
2017-08-18T07:50:33.482Z,19.6
2017-08-18T07:51:36.280Z,19.7
2017-08-18T07:52:38.735Z,19.7
2017-08-18T07:53:41.536Z,19.8
2017-08-18T07:54:44.339Z,19.8
2017-08-18T07:55:46.800Z,19.8
2017-08-18T07:56:50.264Z,19.9
2017-08-18T07:57:52.737Z,19.9
2017-08-18T07:58:55.194Z,20
2017-08-18T07:59:58.356Z,20
2017-08-18T08:01:01.860Z,20
2017-08-18T08:02:05.012Z,20
2017-08-18T08:03:08.170Z,20
2017-08-18T08:04:11.314Z,20.1
2017-08-18T08:05:14.113Z,20.1
2017-08-18T08:06:16.918Z,20.1
2017-08-18T08:07:20.054Z,20.1
2017-08-18T08:08:22.880Z,20.1
2017-08-18T08:09:25.350Z,20.2
2017-08-18T08:10:27.812Z,20.1
2017-08-18T08:11:30.293Z,20.1
2017-08-18T08:12:32.748Z,20.2
2017-08-18T08:13:35.203Z,20.3
2017-08-18T08:14:38.028Z,20.4
2017-08-18T08:15:41.172Z,20.4
2017-08-18T08:16:43.619Z,20.5
2017-08-18T08:17:46.084Z,20.5
2017-08-18T08:18:48.553Z,20.5
2017-08-18T08:19:51.022Z,20.5
2017-08-18T08:20:53.834Z,20.5
2017-08-18T08:21:56.980Z,20.6
2017-08-18T08:22:59.429Z,20.6
2017-08-18T08:24:02.234Z,20.6
2017-08-18T08:25:04.697Z,20.6
2017-08-18T08:26:07.180Z,20.6
2017-08-18T08:27:10.323Z,20.7
2017-08-18T08:28:13.124Z,20.7
2017-08-18T08:29:16.295Z,20.7
2017-08-18T08:30:19.100Z,20.8
2017-08-18T08:31:21.543Z,20.8
2017-08-18T08:32:23.999Z,20.9
2017-08-18T08:33:26.470Z,21
2017-08-18T08:34:28.944Z,21
2017-08-18T08:35:32.084Z,21
2017-08-18T08:36:34.894Z,21
2017-08-18T08:37:38.022Z,21.1
2017-08-18T08:38:41.189Z,21.1
2017-08-18T08:39:43.662Z,21
2017-08-18T08:40:47.123Z,20.9
2017-08-18T08:41:49.596Z,20.9
2017-08-18T08:42:52.051Z,20.9
2017-08-18T08:43:54.511Z,20.9
2017-08-18T08:44:56.981Z,20.9
2017-08-18T08:45:59.437Z,20.8
2017-08-18T08:47:02.580Z,20.7
2017-08-18T08:48:05.726Z,20.7
2017-08-18T08:49:08.523Z,20.7
2017-08-18T08:50:11.007Z,20.6
2017-08-18T08:51:14.144Z,20.7
2017-08-18T08:52:17.613Z,20.7
2017-08-18T08:53:20.417Z,20.8
2017-08-18T08:54:23.226Z,20.7
2017-08-18T08:55:25.684Z,20.7
2017-08-18T08:56:28.161Z,20.8
2017-08-18T08:57:30.614Z,20.8
2017-08-18T08:58:33.077Z,20.9
2017-08-18T08:59:35.546Z,20.9
2017-08-18T09:00:38.015Z,20.9
2017-08-18T09:01:40.480Z,21
2017-08-18T09:02:43.285Z,20.9
2017-08-18T09:03:46.416Z,21
2017-08-18T09:04:49.572Z,21
2017-08-18T09:05:52.721Z,21
2017-08-18T09:06:55.858Z,21
2017-08-18T09:07:58.320Z,21
2017-08-18T09:09:01.469Z,21
2017-08-18T09:10:04.270Z,21
2017-08-18T09:11:07.058Z,21.1
2017-08-18T09:12:10.210Z,21.1
2017-08-18T09:13:13.025Z,21.2
2017-08-18T09:14:15.820Z,21.3
2017-08-18T09:15:18.625Z,21.3
2017-08-18T09:16:21.483Z,21.3
2017-08-18T09:17:24.306Z,21.3
2017-08-18T09:18:27.107Z,21.3
2017-08-18T09:19:29.917Z,21.3
2017-08-18T09:20:32.377Z,21.5
2017-08-18T09:21:34.879Z,21.5
2017-08-18T09:22:37.726Z,21.5
2017-08-18T09:23:40.215Z,21.5
2017-08-18T09:24:43.379Z,21.6
2017-08-18T09:25:45.856Z,21.6
2017-08-18T09:26:48.656Z,21.6
2017-08-18T09:27:51.800Z,21.6
2017-08-18T09:28:54.592Z,21.7
2017-08-18T09:29:57.417Z,21.8
2017-08-18T09:31:00.228Z,21.9
2017-08-18T09:32:03.379Z,21.9
2017-08-18T09:33:06.171Z,21.8
2017-08-18T09:34:09.344Z,21.8
2017-08-18T09:35:12.144Z,21.7
2017-08-18T09:36:14.611Z,21.7
2017-08-18T09:37:17.610Z,21.8
2017-08-18T09:38:21.424Z,21.8
2017-08-18T09:39:23.884Z,21.9
2017-08-18T09:40:26.690Z,22
2017-08-18T09:41:29.150Z,22.1
2017-08-18T09:42:31.626Z,22.2
2017-08-18T09:43:34.102Z,22.2
2017-08-18T09:44:36.566Z,22.2
2017-08-18T09:45:40.047Z,22.2
2017-08-18T09:46:42.498Z,22.3
2017-08-18T09:47:44.982Z,22.2
2017-08-18T09:48:47.450Z,22.1
2017-08-18T09:49:50.252Z,22.1
2017-08-18T09:50:53.046Z,22.1
2017-08-18T09:51:56.187Z,22.1
2017-08-18T09:52:58.671Z,22.1
2017-08-18T09:54:01.470Z,22.2
2017-08-18T09:55:04.258Z,22.4
2017-08-18T09:56:06.740Z,22.4
2017-08-18T09:57:09.550Z,22.3
2017-08-18T09:58:12.026Z,22.2
2017-08-18T09:59:14.826Z,22.4
2017-08-18T10:00:17.965Z,22.5
2017-08-18T10:01:21.108Z,22.6
2017-08-18T10:02:23.606Z,22.5
2017-08-18T10:03:26.063Z,22.5
2017-08-18T10:04:28.867Z,22.5
2017-08-18T10:05:31.325Z,22.5
2017-08-18T10:06:34.115Z,22.5
2017-08-18T10:07:36.588Z,22.6
2017-08-18T10:08:39.739Z,22.5
2017-08-18T10:09:42.196Z,22.4
2017-08-18T10:10:45.342Z,22.4
2017-08-18T10:11:47.837Z,22.4
2017-08-18T10:12:50.290Z,22.3
2017-08-18T10:13:52.764Z,22.4
2017-08-18T10:14:55.234Z,22.5
2017-08-18T10:15:58.041Z,22.3
2017-08-18T10:17:00.499Z,22.2
2017-08-18T10:18:03.296Z,22.2
2017-08-18T10:19:06.101Z,22.3
2017-08-18T10:20:08.903Z,22.2
2017-08-18T10:21:11.413Z,22.2
2017-08-18T10:22:14.564Z,22.4
2017-08-18T10:23:17.019Z,22.3
2017-08-18T10:24:19.820Z,22.3
2017-08-18T10:25:22.618Z,22.3
2017-08-18T10:26:25.762Z,22.4
2017-08-18T10:27:28.237Z,22.3
2017-08-18T10:28:30.693Z,22.3
2017-08-18T10:29:33.833Z,22.3
2017-08-18T10:30:36.302Z,22.2
2017-08-18T10:31:38.766Z,22.2
2017-08-18T10:32:41.255Z,22.3
2017-08-18T10:33:44.058Z,22.3
2017-08-18T10:34:46.522Z,22.1
2017-08-18T10:35:49.323Z,22.2
2017-08-18T10:36:51.788Z,22.2
2017-08-18T10:37:54.249Z,22.2
2017-08-18T10:38:57.057Z,22.1
2017-08-18T10:39:59.527Z,22.1
2017-08-18T10:41:02.667Z,22
2017-08-18T10:42:05.460Z,22
2017-08-18T10:43:08.255Z,22
2017-08-18T10:44:11.053Z,21.9
2017-08-18T10:45:13.858Z,22
2017-08-18T10:46:16.665Z,22
2017-08-18T10:47:19.481Z,22.1
2017-08-18T10:48:21.942Z,22
2017-08-18T10:49:25.076Z,22
2017-08-18T10:50:27.569Z,22
2017-08-18T10:51:30.707Z,21.9
2017-08-18T10:52:33.185Z,21.9
2017-08-18T10:53:35.986Z,21.8
2017-08-18T10:54:38.773Z,21.8
2017-08-18T10:55:41.234Z,21.7
2017-08-18T10:56:43.694Z,21.8
2017-08-18T10:57:46.156Z,21.8
2017-08-18T10:58:49.288Z,21.8
2017-08-18T10:59:51.758Z,21.8
2017-08-18T11:00:54.895Z,21.9
2017-08-18T11:01:57.365Z,21.9
2017-08-18T11:02:59.819Z,21.9
2017-08-18T11:04:02.961Z,21.9
2017-08-18T11:05:06.807Z,21.9
2017-08-18T11:06:09.605Z,22
2017-08-18T11:07:12.757Z,22.1
2017-08-18T11:08:15.217Z,22.1
2017-08-18T11:09:18.006Z,22
2017-08-18T11:10:21.138Z,22
2017-08-18T11:11:23.610Z,22
2017-08-18T11:12:26.069Z,22
2017-08-18T11:13:28.528Z,22
2017-08-18T11:14:31.673Z,22
2017-08-18T11:15:34.475Z,22
2017-08-18T11:16:37.950Z,22
2017-08-18T11:17:40.764Z,22
2017-08-18T11:18:43.555Z,21.9
2017-08-18T11:19:46.368Z,22
2017-08-18T11:20:49.503Z,22
2017-08-18T11:21:52.300Z,21.9
2017-08-18T11:22:55.106Z,21.9
2017-08-18T11:23:57.913Z,21.9
2017-08-18T11:25:00.371Z,21.8
2017-08-18T11:26:03.526Z,21.8
2017-08-18T11:27:05.989Z,21.8
2017-08-18T11:28:08.788Z,21.8
2017-08-18T11:29:11.241Z,21.8
2017-08-18T11:30:15.429Z,21.9
2017-08-18T11:31:18.240Z,21.8
2017-08-18T11:32:20.708Z,21.8
2017-08-18T11:33:23.532Z,21.8
2017-08-18T11:34:25.995Z,21.8
2017-08-18T11:35:28.466Z,21.8
2017-08-18T11:36:31.263Z,21.8
2017-08-18T11:37:33.737Z,21.8
2017-08-18T11:38:36.528Z,21.7
2017-08-18T11:39:39.005Z,21.7
2017-08-18T11:40:41.818Z,21.7
2017-08-18T11:41:44.615Z,21.6
2017-08-18T11:42:47.101Z,21.7
2017-08-18T11:43:49.920Z,21.6
2017-08-18T11:44:53.397Z,21.6
2017-08-18T11:45:56.204Z,21.7
2017-08-18T11:46:59.001Z,21.6
2017-08-18T11:48:01.457Z,21.6
2017-08-18T11:49:05.275Z,21.6
2017-08-18T11:50:08.419Z,21.6
2017-08-18T11:51:11.559Z,21.6
2017-08-18T11:52:15.037Z,21.7
2017-08-18T11:53:17.503Z,21.5
2017-08-18T11:54:20.309Z,21.5
2017-08-18T11:55:23.453Z,21.5
2017-08-18T11:56:26.256Z,21.6
2017-08-18T11:57:28.712Z,21.5
2017-08-18T11:58:31.180Z,21.6
2017-08-18T11:59:33.982Z,21.6
2017-08-18T12:00:37.784Z,21.7
2017-08-18T12:01:40.302Z,21.7
2017-08-18T12:02:43.302Z,21.7
2017-08-18T12:03:45.980Z,21.6
2017-08-18T12:04:48.772Z,21.6
2017-08-18T12:05:51.508Z,21.6
2017-08-18T12:06:53.975Z,21.6
2017-08-18T12:07:56.971Z,21.6
2017-08-18T12:08:59.773Z,21.6
2017-08-18T12:10:02.945Z,21.6
2017-08-18T12:11:06.171Z,21.6
2017-08-18T12:12:08.635Z,21.6
2017-08-18T12:13:11.439Z,21.6
2017-08-18T12:14:13.909Z,21.6
2017-08-18T12:15:16.762Z,21.6
2017-08-18T12:16:19.358Z,21.5
2017-08-18T12:17:22.305Z,21.5
2017-08-18T12:18:24.826Z,21.5
2017-08-18T12:19:27.629Z,21.4
2017-08-18T12:20:31.245Z,21.4
2017-08-18T12:21:34.043Z,21.4
2017-08-18T12:22:36.987Z,21.4
2017-08-18T12:23:39.862Z,21.4
2017-08-18T12:24:42.847Z,21.4
2017-08-18T12:25:45.341Z,21.3
2017-08-18T12:26:48.238Z,21.4
2017-08-18T12:27:51.133Z,21.4
2017-08-18T12:28:53.597Z,21.3
2017-08-18T12:29:56.880Z,21.3
2017-08-18T12:30:59.349Z,21.4
2017-08-18T12:32:02.618Z,21.4
2017-08-18T12:33:05.080Z,21.5
2017-08-18T12:34:07.639Z,21.4
2017-08-18T12:35:10.124Z,21.5
2017-08-18T12:36:13.033Z,21.4
2017-08-18T12:37:15.489Z,21.4
2017-08-18T12:38:18.094Z,21.4
2017-08-18T12:39:21.595Z,21.4
2017-08-18T12:40:24.147Z,21.3
2017-08-18T12:41:26.982Z,21.4
2017-08-18T12:42:29.877Z,21.4
2017-08-18T12:43:32.357Z,21.4
2017-08-18T12:44:35.315Z,21.3
2017-08-18T12:45:37.776Z,21.3
2017-08-18T12:46:40.388Z,21.3
2017-08-18T12:47:42.850Z,21.2
2017-08-18T12:48:46.162Z,21.2
2017-08-18T12:49:49.056Z,21.2
2017-08-18T12:50:51.626Z,21.1
2017-08-18T12:51:54.082Z,21
2017-08-18T12:52:56.640Z,21
2017-08-18T12:53:59.461Z,21
2017-08-18T12:55:02.058Z,21
2017-08-18T12:56:05.202Z,20.9
2017-08-18T12:57:08.176Z,20.9
2017-08-18T12:58:11.335Z,20.9
2017-08-18T12:59:14.138Z,20.8
2017-08-18T13:00:17.624Z,20.8
2017-08-18T13:01:20.744Z,20.8
2017-08-18T13:02:23.216Z,20.7
2017-08-18T13:03:25.659Z,20.6
2017-08-18T13:04:28.131Z,20.5
2017-08-18T13:05:30.590Z,20.4
2017-08-18T13:06:33.727Z,20.3
2017-08-18T13:07:36.185Z,20.2
2017-08-18T13:08:38.684Z,20.2
2017-08-18T13:09:41.144Z,20.1
2017-08-18T13:10:44.130Z,20.1
2017-08-18T13:11:47.451Z,19.9
2017-08-18T13:12:53.498Z,19.9
2017-08-18T13:13:56.732Z,19.8
2017-08-18T13:14:59.585Z,19.8
2017-08-18T13:16:02.849Z,19.9
2017-08-18T13:17:06.353Z,19.8
2017-08-18T13:18:09.192Z,19.7
2017-08-18T13:19:12.005Z,19.7
2017-08-18T13:20:14.819Z,19.6
2017-08-18T13:21:17.631Z,19.6
2017-08-18T13:22:20.103Z,19.6
2017-08-18T13:23:22.701Z,19.6
2017-08-18T13:24:25.172Z,19.6
2017-08-18T13:25:27.669Z,19.5
2017-08-18T13:26:30.143Z,19.5
2017-08-18T13:27:32.614Z,19.5
2017-08-18T13:28:35.765Z,19.5
2017-08-18T13:29:38.228Z,19.5
2017-08-18T13:30:40.698Z,19.6
2017-08-18T13:31:43.175Z,19.5
2017-08-18T13:32:45.971Z,19.5
2017-08-18T13:33:48.783Z,19.5
2017-08-18T13:34:51.569Z,19.5
2017-08-18T13:35:54.056Z,19.4
2017-08-18T13:36:56.528Z,19.4
2017-08-18T13:37:58.995Z,19.4
2017-08-18T13:39:01.786Z,19.3
2017-08-18T13:40:04.958Z,19.3
2017-08-18T13:41:07.412Z,19.3
2017-08-18T13:42:10.554Z,19.2
2017-08-18T13:43:13.369Z,19.3
2017-08-18T13:44:16.533Z,19.3
2017-08-18T13:45:20.045Z,19.3
2017-08-18T13:46:22.513Z,19.2
2017-08-18T13:47:25.307Z,19.1
2017-08-18T13:48:28.110Z,19.1
2017-08-18T13:49:31.354Z,19.1
2017-08-18T13:50:34.146Z,19.1
2017-08-18T13:51:36.948Z,19
2017-08-18T13:52:39.744Z,19
2017-08-18T13:53:42.880Z,19
2017-08-18T13:54:45.677Z,19.1
2017-08-18T13:55:48.139Z,19
2017-08-18T13:56:50.943Z,19
2017-08-18T13:57:54.085Z,19
2017-08-18T13:58:56.563Z,19.1
2017-08-18T13:59:59.045Z,19
2017-08-18T14:01:01.859Z,19.1
2017-08-18T14:02:04.322Z,18.9